Baikonur, Kazakhstan
Current Conditions -  °F | °C
As of 4:00 AM on Friday 28 Nov 2014 (Local Time) from UAOO Reporting Station
Clear Clear  
Wind Chill: -7°   Ceiling: Unl
Heat Index:   Visibility: 6mi
Dew Point:   Wind: 7mph
Humidity: 85%   Direction: 60°ENE
Pressure: 30.5"   Gusts: NA
Location:  46.1°N, 63°E
Report Text: UAOO 272300Z 06003MPS CAVOK M15/M17 Q1033 NOSIG RMKQFE762/1017
Loading
Personal Weather Stations






























Interactive Weather Map New forecast layout! Learn more

10-Day Weather Forecast

Advertisements
Track Severe Weather on mobile